createdAt,value
2023-05-04T14:04:23.304Z,37.64
2023-05-04T14:05:38.619Z,37.67
2023-05-04T14:06:41.637Z,37.82
2023-05-04T14:07:45.081Z,37.57
2023-05-04T14:08:48.634Z,37.30
2023-05-04T14:09:52.391Z,36.96
2023-05-04T14:10:55.728Z,37.38
2023-05-04T14:11:59.183Z,37.17
2023-05-04T14:13:02.731Z,37.38
2023-05-04T14:14:06.232Z,37.58
2023-05-04T14:15:10.766Z,37.36
2023-05-04T14:16:14.219Z,37.33
2023-05-04T14:17:16.949Z,37.27
2023-05-04T14:18:20.614Z,37.38
2023-05-04T14:19:26.484Z,37.22
2023-05-04T14:20:30.000Z,37.42
2023-05-04T14:21:32.423Z,37.28
2023-05-04T14:22:38.039Z,37.00
2023-05-04T14:23:41.994Z,37.26
2023-05-04T14:24:44.586Z,37.40
2023-05-04T14:25:52.311Z,37.25
2023-05-04T14:26:55.173Z,37.64
2023-05-04T14:27:58.590Z,37.81
2023-05-04T14:29:01.083Z,37.75
2023-05-04T14:30:05.036Z,37.92
2023-05-04T14:31:09.072Z,37.92
2023-05-04T14:32:12.590Z,37.55
2023-05-04T14:33:16.013Z,37.44
2023-05-04T14:34:18.772Z,37.71
2023-05-04T14:35:23.798Z,37.44
2023-05-04T14:36:26.281Z,37.48
2023-05-04T14:37:29.534Z,37.51
2023-05-04T14:38:32.847Z,37.58
2023-05-04T14:39:36.675Z,37.54
2023-05-04T14:40:39.397Z,37.22
2023-05-04T14:41:42.676Z,37.28
2023-05-04T14:42:45.173Z,37.14
2023-05-04T14:43:48.992Z,37.26
2023-05-04T14:44:53.202Z,37.07
2023-05-04T14:45:57.669Z,37.28
2023-05-04T14:47:03.516Z,37.48
2023-05-04T14:48:08.856Z,37.25
2023-05-04T14:49:16.254Z,37.64
2023-05-04T14:50:29.616Z,37.49
2023-05-04T14:51:34.130Z,37.55
2023-05-04T14:52:37.662Z,37.88
2023-05-04T14:53:41.120Z,37.48
2023-05-04T14:54:45.295Z,37.39
2023-05-04T14:55:48.937Z,37.70
2023-05-04T14:56:52.401Z,37.74
2023-05-04T14:57:56.839Z,37.50
2023-05-04T14:59:02.133Z,37.78
2023-05-04T15:00:09.109Z,37.96
2023-05-04T15:01:13.928Z,38.32
2023-05-04T15:02:17.694Z,37.74
2023-05-04T15:03:21.878Z,37.68
2023-05-04T15:04:25.466Z,37.43
2023-05-04T15:05:30.166Z,37.25
2023-05-04T15:06:34.019Z,37.17
2023-05-04T15:07:37.665Z,37.36
2023-05-04T15:08:41.093Z,37.49
2023-05-04T15:09:43.527Z,37.57
2023-05-04T15:10:47.213Z,37.90
2023-05-04T15:11:49.748Z,37.90
2023-05-04T15:12:53.383Z,37.73
2023-05-04T15:13:58.857Z,37.76
2023-05-04T15:15:01.496Z,37.60
2023-05-04T15:16:06.545Z,37.71
2023-05-04T15:17:09.121Z,37.60
2023-05-04T15:18:12.652Z,37.53
2023-05-04T15:19:15.156Z,37.54
2023-05-04T15:20:19.313Z,37.66
2023-05-04T15:21:25.585Z,38.13
2023-05-04T15:22:28.956Z,37.89
2023-05-04T15:23:32.326Z,38.10
2023-05-04T15:24:34.885Z,37.75
2023-05-04T15:25:39.564Z,37.40
2023-05-04T15:26:42.001Z,37.65
2023-05-04T15:27:45.996Z,37.52
2023-05-04T15:28:49.298Z,37.94
2023-05-04T15:29:52.068Z,37.67
2023-05-04T15:30:55.450Z,38.29
2023-05-04T15:31:58.118Z,37.74
2023-05-04T15:33:01.789Z,38.18
2023-05-04T15:34:05.212Z,37.89
2023-05-04T15:35:09.063Z,37.82
2023-05-04T15:36:13.261Z,37.83
2023-05-04T15:37:17.076Z,37.82
2023-05-04T15:38:20.972Z,37.87
2023-05-04T15:39:24.352Z,37.75
2023-05-04T15:40:27.134Z,38.05
2023-05-04T15:41:33.988Z,38.12
2023-05-04T15:42:36.454Z,38.16
2023-05-04T15:43:39.843Z,38.19
2023-05-04T15:44:42.384Z,38.10
2023-05-04T15:45:46.049Z,38.16
2023-05-04T15:46:50.226Z,38.25
2023-05-04T15:47:54.283Z,38.19
2023-05-04T15:48:57.746Z,38.16
2023-05-04T15:50:00.198Z,37.72
2023-05-04T15:51:03.544Z,38.06
2023-05-04T15:52:06.243Z,38.17
2023-05-04T15:53:10.846Z,38.48
2023-05-04T15:54:14.598Z,38.61
2023-05-04T15:55:26.028Z,38.45
2023-05-04T15:56:30.112Z,38.22
2023-05-04T15:57:32.590Z,37.77
2023-05-04T15:58:36.565Z,37.90
2023-05-04T15:59:39.586Z,37.70
2023-05-04T16:00:43.251Z,37.91
2023-05-04T16:01:46.974Z,38.06
2023-05-04T16:02:50.622Z,37.76
2023-05-04T16:03:56.623Z,37.99
2023-05-04T16:05:00.217Z,37.96
2023-05-04T16:06:02.990Z,38.00
2023-05-04T16:07:06.464Z,38.09
2023-05-04T16:08:11.609Z,37.84
2023-05-04T16:09:17.163Z,37.82
2023-05-04T16:10:21.310Z,37.57
2023-05-04T16:11:23.725Z,37.60
2023-05-04T16:12:27.238Z,37.64
2023-05-04T16:13:29.828Z,37.41
2023-05-04T16:14:33.234Z,37.57
2023-05-04T16:15:37.146Z,37.30
2023-05-04T16:16:41.525Z,37.56
2023-05-04T16:17:44.034Z,37.47
2023-05-04T16:18:47.476Z,37.58
2023-05-04T16:19:49.927Z,37.63
2023-05-04T16:20:54.736Z,37.53
2023-05-04T16:21:57.127Z,37.63
2023-05-04T16:23:01.114Z,37.20
2023-05-04T16:24:07.830Z,37.53
2023-05-04T16:25:11.414Z,37.61
2023-05-04T16:26:15.001Z,37.49
2023-05-04T16:27:17.417Z,37.81
2023-05-04T16:28:21.227Z,37.45
2023-05-04T16:29:24.530Z,37.69
2023-05-04T16:30:32.357Z,37.68
2023-05-04T16:31:34.812Z,38.19
2023-05-04T16:32:38.397Z,38.08
2023-05-04T16:33:47.182Z,38.34
2023-05-04T16:34:50.673Z,38.16
2023-05-04T16:35:53.181Z,38.41
2023-05-04T16:36:56.594Z,38.26
2023-05-04T16:37:59.131Z,38.42
2023-05-04T16:39:02.610Z,38.58
2023-05-04T16:40:14.963Z,38.81
2023-05-04T16:41:19.693Z,38.79
2023-05-04T16:42:22.744Z,39.16
2023-05-04T16:43:26.484Z,39.26
2023-05-04T16:44:29.833Z,39.38
2023-05-04T16:45:33.583Z,39.58
2023-05-04T16:46:36.456Z,39.64
2023-05-04T16:47:39.876Z,39.82
2023-05-04T16:48:42.707Z,39.80
2023-05-04T16:49:46.612Z,39.64
2023-05-04T16:50:49.054Z,39.57
2023-05-04T16:51:53.682Z,39.47
2023-05-04T16:52:56.079Z,39.67
2023-05-04T16:53:59.855Z,39.70
2023-05-04T16:55:02.698Z,39.63
2023-05-04T16:56:08.383Z,40.12
2023-05-04T16:57:11.151Z,39.80
2023-05-04T16:58:14.560Z,39.81
2023-05-04T16:59:17.484Z,39.95
2023-05-04T17:00:21.591Z,40.39
2023-05-04T17:01:26.905Z,40.23
2023-05-04T17:02:30.418Z,40.26
2023-05-04T17:03:33.899Z,40.17
2023-05-04T17:04:36.407Z,40.29
2023-05-04T17:05:40.215Z,40.14
2023-05-04T17:06:42.654Z,40.11
2023-05-04T17:07:46.113Z,40.89
2023-05-04T17:08:48.616Z,40.35
2023-05-04T17:09:52.123Z,40.26
2023-05-04T17:10:59.027Z,40.78
2023-05-04T17:12:03.944Z,40.92
2023-05-04T17:13:07.191Z,40.44
2023-05-04T17:14:11.030Z,40.50
2023-05-04T17:15:13.607Z,40.48
2023-05-04T17:16:18.258Z,40.75
2023-05-04T17:17:20.875Z,40.77
2023-05-04T17:18:24.206Z,40.95
2023-05-04T17:19:26.745Z,41.02
2023-05-04T17:20:32.359Z,40.81
2023-05-04T17:21:35.767Z,40.83
2023-05-04T17:22:38.501Z,41.06
2023-05-04T17:23:42.476Z,40.93
2023-05-04T17:24:45.876Z,40.70
2023-05-04T17:25:50.317Z,40.88
2023-05-04T17:26:54.096Z,40.60
2023-05-04T17:27:57.898Z,40.60
2023-05-04T17:29:01.438Z,40.53
2023-05-04T17:30:04.764Z,40.19
2023-05-04T17:31:11.605Z,40.59
2023-05-04T17:32:15.090Z,40.78
2023-05-04T17:33:17.583Z,40.42
2023-05-04T17:34:20.929Z,40.66
2023-05-04T17:35:26.281Z,40.56
2023-05-04T17:36:30.153Z,40.61
2023-05-04T17:37:33.145Z,40.45
2023-05-04T17:38:36.580Z,40.59
2023-05-04T17:39:39.986Z,40.89
2023-05-04T17:40:43.440Z,41.05
2023-05-04T17:41:48.724Z,41.10
2023-05-04T17:42:52.307Z,41.19
2023-05-04T17:43:56.877Z,41.14
2023-05-04T17:45:00.339Z,41.11
2023-05-04T17:46:03.360Z,41.30
2023-05-04T17:47:06.868Z,41.19
2023-05-04T17:48:09.609Z,41.18
2023-05-04T17:49:13.357Z,41.32
2023-05-04T17:50:15.768Z,41.14
2023-05-04T17:51:19.174Z,41.26
2023-05-04T17:52:21.548Z,41.15
2023-05-04T17:53:25.866Z,41.57
2023-05-04T17:54:28.459Z,41.42
2023-05-04T17:55:32.051Z,41.56
2023-05-04T17:56:34.813Z,41.45
2023-05-04T17:57:38.254Z,41.43
2023-05-04T17:58:40.705Z,41.35
2023-05-04T17:59:45.479Z,41.25
2023-05-04T18:00:48.146Z,41.54
2023-05-04T18:01:52.722Z,41.70
2023-05-04T18:02:56.447Z,41.94
2023-05-04T18:03:59.955Z,41.94
2023-05-04T18:05:02.521Z,41.67
2023-05-04T18:06:08.386Z,42.26
2023-05-04T18:07:11.038Z,42.17
2023-05-04T18:08:14.937Z,42.07
2023-05-04T18:09:17.313Z,42.39
2023-05-04T18:10:20.815Z,42.32
2023-05-04T18:11:23.236Z,42.34
2023-05-04T18:12:26.741Z,42.63
2023-05-04T18:13:30.192Z,42.51
2023-05-04T18:14:32.761Z,42.46
2023-05-04T18:15:37.548Z,42.44
2023-05-04T18:16:40.090Z,42.52
2023-05-04T18:17:43.648Z,42.55
2023-05-04T18:18:46.180Z,42.43
2023-05-04T18:19:49.532Z,42.58
2023-05-04T18:20:52.878Z,42.51
2023-05-04T18:21:56.177Z,42.72
2023-05-04T18:23:00.165Z,42.78
2023-05-04T18:24:02.586Z,42.80
2023-05-04T18:25:06.608Z,42.80
2023-05-04T18:26:09.244Z,42.74
2023-05-04T18:27:12.584Z,42.91
2023-05-04T18:28:14.995Z,42.89
2023-05-04T18:29:19.585Z,42.87
2023-05-04T18:30:23.427Z,43.10
2023-05-04T18:31:27.720Z,43.32
2023-05-04T18:32:31.319Z,43.35
2023-05-04T18:33:34.980Z,43.56
2023-05-04T18:34:37.731Z,43.60
2023-05-04T18:35:41.174Z,43.71
2023-05-04T18:36:43.689Z,43.31
2023-05-04T18:37:47.067Z,43.46
2023-05-04T18:38:53.056Z,43.61
2023-05-04T18:39:56.514Z,43.99
2023-05-04T18:40:59.145Z,43.81
2023-05-04T18:42:02.870Z,43.97
2023-05-04T18:43:06.954Z,43.90
2023-05-04T18:44:10.528Z,44.25
2023-05-04T18:45:14.021Z,44.38
2023-05-04T18:46:16.571Z,44.58
2023-05-04T18:47:21.581Z,44.59
2023-05-04T18:48:24.146Z,44.60
2023-05-04T18:49:27.908Z,45.04
2023-05-04T18:50:32.872Z,44.93
2023-05-04T18:51:35.431Z,45.23
2023-05-04T18:52:38.899Z,45.35
2023-05-04T18:53:41.385Z,45.85
2023-05-04T18:54:44.891Z,45.96
2023-05-04T18:55:48.755Z,46.01
2023-05-04T18:56:51.230Z,46.16
2023-05-04T18:57:54.662Z,46.29
2023-05-04T18:58:57.091Z,46.83
2023-05-04T19:00:00.511Z,46.74
2023-05-04T19:01:08.187Z,46.81
2023-05-04T19:02:12.706Z,47.24
2023-05-04T19:03:16.988Z,47.32
2023-05-04T19:04:20.773Z,47.23
2023-05-04T19:05:23.201Z,47.85
2023-05-04T19:06:26.645Z,47.80
2023-05-04T19:07:29.024Z,47.87
2023-05-04T19:08:32.539Z,48.65
2023-05-04T19:09:35.015Z,48.64
2023-05-04T19:10:38.710Z,48.52
2023-05-04T19:11:41.452Z,49.19
2023-05-04T19:12:45.581Z,49.37
2023-05-04T19:13:49.848Z,49.10
2023-05-04T19:14:54.113Z,49.86
2023-05-04T19:15:56.593Z,49.64
2023-05-04T19:17:00.860Z,49.74
2023-05-04T19:18:03.623Z,50.10
2023-05-04T19:19:10.000Z,50.41
2023-05-04T19:20:12.816Z,50.65
2023-05-04T19:21:16.571Z,50.68
2023-05-04T19:22:19.977Z,50.80
2023-05-04T19:23:22.429Z,50.84
2023-05-04T19:24:26.291Z,50.99
2023-05-04T19:25:34.829Z,51.46
2023-05-04T19:26:39.197Z,51.43
2023-05-04T19:27:41.727Z,51.50
2023-05-04T19:28:45.378Z,51.22
2023-05-04T19:29:47.790Z,51.50
2023-05-04T19:30:52.998Z,51.58
2023-05-04T19:31:55.489Z,51.39
2023-05-04T19:32:59.069Z,52.25
2023-05-04T19:34:01.915Z,51.67
2023-05-04T19:35:07.698Z,52.22
2023-05-04T19:36:10.798Z,52.25
2023-05-04T19:37:14.130Z,52.26
2023-05-04T19:38:17.896Z,52.36
2023-05-04T19:39:21.471Z,52.11
2023-05-04T19:40:23.951Z,52.54
2023-05-04T19:41:27.526Z,52.53
2023-05-04T19:42:30.067Z,52.68
2023-05-04T19:43:34.596Z,52.31
2023-05-04T19:44:37.054Z,52.93
2023-05-04T19:45:41.080Z,52.68
2023-05-04T19:46:51.716Z,52.99
2023-05-04T19:47:54.969Z,52.66
2023-05-04T19:48:58.435Z,52.71
2023-05-04T19:50:01.023Z,53.13
2023-05-04T19:51:06.022Z,53.21
2023-05-04T19:52:08.582Z,53.24
2023-05-04T19:53:12.188Z,53.17
2023-05-04T19:54:16.142Z,53.50
2023-05-04T19:55:18.720Z,53.57
2023-05-04T19:56:22.234Z,53.56
2023-05-04T19:57:25.674Z,53.43
2023-05-04T19:58:30.956Z,53.70
2023-05-04T19:59:34.712Z,53.68
2023-05-04T20:00:38.016Z,53.52
2023-05-04T20:01:42.296Z,53.93
2023-05-04T20:02:44.873Z,53.72
2023-05-04T20:03:48.543Z,53.65
2023-05-04T20:04:51.526Z,53.91
2023-05-04T20:05:55.644Z,53.99
2023-05-04T20:06:59.599Z,54.05
2023-05-04T20:08:05.178Z,54.15
2023-05-04T20:09:08.202Z,54.15
2023-05-04T20:10:12.197Z,53.96
2023-05-04T20:11:14.752Z,54.09
2023-05-04T20:12:18.260Z,54.05
2023-05-04T20:13:20.937Z,54.37
2023-05-04T20:14:24.731Z,54.13
2023-05-04T20:15:27.534Z,54.26
2023-05-04T20:16:31.066Z,54.31
2023-05-04T20:17:33.818Z,54.89
2023-05-04T20:18:37.238Z,54.60
2023-05-04T20:19:43.067Z,54.59
2023-05-04T20:20:46.827Z,54.55
2023-05-04T20:21:49.323Z,54.60
2023-05-04T20:22:56.253Z,54.70
2023-05-04T20:23:59.524Z,54.83
2023-05-04T20:25:03.274Z,54.87
2023-05-04T20:26:06.181Z,54.60
2023-05-04T20:27:09.928Z,54.93
2023-05-04T20:28:12.484Z,55.07
2023-05-04T20:29:17.068Z,55.15
2023-05-04T20:30:21.680Z,55.08
2023-05-04T20:31:25.513Z,54.99
2023-05-04T20:32:28.334Z,54.96
2023-05-04T20:33:31.866Z,54.71
2023-05-04T20:34:34.343Z,54.53
2023-05-04T20:35:37.889Z,54.14
2023-05-04T20:36:40.393Z,53.97
2023-05-04T20:37:43.921Z,54.04
2023-05-04T20:38:47.890Z,53.75
2023-05-04T20:39:53.033Z,53.83
2023-05-04T20:40:55.581Z,53.86
2023-05-04T20:41:59.374Z,53.77
2023-05-04T20:43:01.967Z,53.94
2023-05-04T20:44:05.639Z,54.21
2023-05-04T20:45:09.322Z,53.80
2023-05-04T20:46:12.781Z,54.01
2023-05-04T20:47:15.273Z,54.16
2023-05-04T20:48:19.041Z,54.09
2023-05-04T20:49:21.472Z,54.01
2023-05-04T20:50:25.172Z,53.85
2023-05-04T20:51:28.005Z,53.93
2023-05-04T20:52:32.129Z,53.88
2023-05-04T20:53:37.200Z,53.36
2023-05-04T20:54:41.716Z,53.44
2023-05-04T20:55:45.091Z,53.64
2023-05-04T20:56:47.783Z,53.36
2023-05-04T20:57:52.725Z,53.47
2023-05-04T20:58:55.868Z,53.35
2023-05-04T20:59:59.432Z,53.24
2023-05-04T21:01:05.695Z,53.80
2023-05-04T21:02:09.390Z,53.58
2023-05-04T21:03:13.099Z,53.78
2023-05-04T21:04:17.027Z,53.79
2023-05-04T21:05:19.513Z,53.86
2023-05-04T21:06:23.385Z,53.90
2023-05-04T21:07:26.375Z,53.87
2023-05-04T21:08:29.742Z,53.85
2023-05-04T21:09:32.661Z,53.75
2023-05-04T21:10:37.328Z,53.83
2023-05-04T21:11:39.796Z,53.74
2023-05-04T21:12:43.193Z,54.04
2023-05-04T21:13:45.674Z,53.45
2023-05-04T21:14:49.131Z,53.33
2023-05-04T21:15:51.929Z,53.26
2023-05-04T21:16:55.396Z,53.53
2023-05-04T21:17:58.768Z,53.35
2023-05-04T21:19:01.727Z,53.35
2023-05-04T21:20:06.098Z,53.48
2023-05-04T21:21:09.186Z,53.34
2023-05-04T21:22:17.584Z,53.18
2023-05-04T21:23:20.141Z,53.37
2023-05-04T21:24:23.515Z,53.35
2023-05-04T21:25:26.332Z,53.38
2023-05-04T21:26:31.395Z,53.84
2023-05-04T21:27:33.887Z,53.50
2023-05-04T21:28:37.273Z,53.41
2023-05-04T21:29:39.661Z,53.34
2023-05-04T21:30:43.593Z,53.47
2023-05-04T21:31:46.654Z,53.44
2023-05-04T21:32:50.337Z,53.00
2023-05-04T21:33:55.534Z,53.28
2023-05-04T21:34:59.392Z,53.18
2023-05-04T21:36:11.068Z,52.97
2023-05-04T21:37:14.738Z,52.77
2023-05-04T21:38:18.887Z,52.99
2023-05-04T21:39:23.675Z,53.22
2023-05-04T21:40:27.552Z,53.02
2023-05-04T21:41:32.384Z,53.03
2023-05-04T21:42:35.544Z,53.28
2023-05-04T21:43:38.828Z,53.18
2023-05-04T21:44:42.928Z,53.21
2023-05-04T21:45:46.344Z,52.87
2023-05-04T21:46:48.927Z,52.94
2023-05-04T21:47:52.300Z,53.28
2023-05-04T21:48:54.732Z,53.28
2023-05-04T21:49:58.016Z,53.45
2023-05-04T21:51:00.567Z,53.26
2023-05-04T21:52:04.202Z,53.51
2023-05-04T21:53:06.686Z,53.54
2023-05-04T21:54:10.029Z,53.15
2023-05-04T21:55:13.049Z,53.32
2023-05-04T21:56:16.604Z,52.88
2023-05-04T21:57:20.850Z,53.02
2023-05-04T21:58:24.260Z,53.05
2023-05-04T21:59:26.634Z,53.25
2023-05-04T22:00:30.486Z,53.48
2023-05-04T22:01:37.849Z,53.26
2023-05-04T22:02:41.261Z,53.26
2023-05-04T22:03:44.356Z,53.27
2023-05-04T22:04:47.906Z,53.27
2023-05-04T22:05:54.432Z,53.26
2023-05-04T22:06:58.196Z,53.56
2023-05-04T22:08:01.018Z,53.43
2023-05-04T22:09:05.209Z,53.64
2023-05-04T22:10:08.930Z,53.83
2023-05-04T22:11:12.568Z,53.61
2023-05-04T22:12:14.941Z,54.07
2023-05-04T22:13:20.062Z,54.10
2023-05-04T22:14:23.455Z,53.97
2023-05-04T22:15:34.297Z,54.31
2023-05-04T22:16:42.136Z,54.54
2023-05-04T22:17:44.960Z,54.67
2023-05-04T22:18:49.635Z,54.89
2023-05-04T22:19:52.075Z,54.90
2023-05-04T22:20:55.634Z,54.94
2023-05-04T22:21:58.221Z,55.06
2023-05-04T22:23:02.013Z,55.02
2023-05-04T22:24:04.875Z,55.27
2023-05-04T22:25:08.568Z,55.40
2023-05-04T22:26:10.928Z,55.27
2023-05-04T22:27:14.232Z,55.30
2023-05-04T22:28:17.023Z,55.33
2023-05-04T22:29:21.714Z,55.11
2023-05-04T22:30:25.763Z,55.26
2023-05-04T22:31:29.654Z,55.41
2023-05-04T22:32:32.012Z,55.21
2023-05-04T22:33:35.755Z,55.27
2023-05-04T22:34:38.206Z,55.48
2023-05-04T22:35:41.547Z,55.57
2023-05-04T22:36:43.973Z,55.59
2023-05-04T22:37:48.387Z,55.68
2023-05-04T22:38:52.188Z,55.85
2023-05-04T22:39:55.500Z,56.13
2023-05-04T22:40:57.946Z,56.06
2023-05-04T22:42:01.542Z,56.16
2023-05-04T22:43:03.949Z,56.15
2023-05-04T22:44:07.440Z,56.43
2023-05-04T22:45:12.975Z,56.67
2023-05-04T22:46:17.022Z,56.63
2023-05-04T22:47:19.680Z,56.38
2023-05-04T22:48:23.167Z,56.68
2023-05-04T22:49:25.920Z,56.93
2023-05-04T22:50:29.667Z,56.66
2023-05-04T22:51:32.593Z,56.88
2023-05-04T22:52:36.124Z,56.97
2023-05-04T22:53:38.588Z,56.85
2023-05-04T22:54:42.365Z,57.11
2023-05-04T22:55:45.161Z,57.25
2023-05-04T22:56:48.493Z,57.15
2023-05-04T22:57:50.889Z,57.29
2023-05-04T22:58:54.603Z,57.50
2023-05-04T22:59:57.018Z,57.40
2023-05-04T23:01:01.711Z,57.40
2023-05-04T23:02:04.486Z,57.60
2023-05-04T23:03:08.252Z,57.53
2023-05-04T23:04:11.684Z,57.70
2023-05-04T23:05:15.067Z,57.81
2023-05-04T23:06:17.513Z,57.96
2023-05-04T23:07:21.382Z,58.12
2023-05-04T23:08:23.816Z,58.27
2023-05-04T23:09:27.586Z,58.15
2023-05-04T23:10:29.947Z,58.51
2023-05-04T23:11:33.425Z,58.60
2023-05-04T23:12:35.915Z,58.63
2023-05-04T23:13:39.577Z,59.04
2023-05-04T23:14:42.761Z,58.87
2023-05-04T23:15:46.553Z,58.64
2023-05-04T23:16:50.627Z,58.66
2023-05-04T23:17:54.355Z,58.94
2023-05-04T23:18:57.327Z,59.18
2023-05-04T23:20:00.586Z,59.64
2023-05-04T23:21:03.412Z,59.88
2023-05-04T23:22:07.107Z,59.93
2023-05-04T23:23:09.512Z,60.12
2023-05-04T23:24:12.993Z,60.10
2023-05-04T23:25:15.463Z,60.00
2023-05-04T23:26:19.059Z,60.30
2023-05-04T23:27:21.461Z,60.21
2023-05-04T23:28:24.723Z,60.48
2023-05-04T23:29:27.216Z,60.39
2023-05-04T23:30:30.637Z,60.38
2023-05-04T23:31:33.092Z,60.28
2023-05-04T23:32:37.946Z,60.48
2023-05-04T23:33:40.517Z,60.59
2023-05-04T23:34:43.863Z,60.55
2023-05-04T23:35:46.325Z,60.81
2023-05-04T23:36:50.056Z,60.89
2023-05-04T23:37:52.663Z,60.91
2023-05-04T23:38:56.023Z,60.68
2023-05-04T23:39:58.407Z,60.87
2023-05-04T23:41:03.453Z,60.97
2023-05-04T23:42:06.686Z,61.17
2023-05-04T23:43:10.056Z,60.97
2023-05-04T23:44:12.496Z,61.01
2023-05-04T23:45:16.000Z,61.15
2023-05-04T23:46:18.464Z,61.10
2023-05-04T23:47:22.258Z,61.15
2023-05-04T23:48:25.989Z,61.07
2023-05-04T23:49:29.323Z,61.00
2023-05-04T23:50:31.725Z,60.99
2023-05-04T23:51:35.085Z,60.95
2023-05-04T23:52:37.834Z,61.05
2023-05-04T23:53:41.616Z,61.21
2023-05-04T23:54:44.000Z,61.39
2023-05-04T23:55:47.568Z,61.45
2023-05-04T23:56:50.090Z,61.69
2023-05-04T23:57:53.828Z,61.86
2023-05-04T23:58:56.327Z,61.54
2023-05-04T23:59:59.672Z,61.71
